Claire — 6YRX3 — position and weather

sailwx.info

Track history (hours):
 
Tides and Currents Weather Stations Pressure Air Temp Water Temp Dewpoint Dewpoint Depression Visibility Wind Speed Wind Dir Waves Ship Positions

Claire

Last reported at 2018-Jan-03 15:01 UTC. Time now 2018-Jan-21 03:06 UTC.
Position N 26°21' W 080°05'.
Warning: this ship's position is 17 days out of date.

Length 45 m; draft 2 m.

Type: Pleasure craft. MMSI: 339371000.

Date/timePositionNaut miles runAvg speedWind from/ knotsBaromVisibWave heightAir tempDewpointWater temp
2018-Jan-03 15:01N 26°21' W 080°05'0 0.0
2018-Jan-03 15:00N 26°21' W 080°05'2 4.0
2018-Jan-03 14:30N 26°19' W 080°05'3 5.8
2018-Jan-03 13:59N 26°16' W 080°05'2 4.2
2018-Jan-03 13:29N 26°14' W 080°06'3 5.4
2018-Jan-03 13:00N 26°11' W 080°06'3 6.1
2018-Jan-03 12:30N 26°08' W 080°07'1 2.5
2018-Jan-03 12:01N 26°07' W 080°07'0 0.0
2018-Jan-03 02:13N 26°07' W 080°07'0 0.0
2018-Jan-03 01:58N 26°07' W 080°07'0 0.0
2018-Jan-03 01:28N 26°07' W 080°07'0 0.0
2018-Jan-03 00:58N 26°07' W 080°07'0 0.0
2018-Jan-03 00:28N 26°07' W 080°07'0 0.0
2018-Jan-02 23:58N 26°07' W 080°07'0 0.0
2018-Jan-02 23:28N 26°07' W 080°07'0 0.0
2018-Jan-02 22:58N 26°07' W 080°07'0 0.0
2018-Jan-02 22:30N 26°07' W 080°07'0 0.0
2018-Jan-02 22:00N 26°07' W 080°07'1 1.4
2018-Jan-02 21:30N 26°06' W 080°07'1 1.9
2018-Jan-02 21:00N 26°06' W 080°07'3 5.4
2018-Jan-02 20:30N 26°03' W 080°05'4 7.8
2018-Jan-02 20:00N 25°59' W 080°05'4 7.9
2018-Jan-02 19:30N 25°56' W 080°05'3 6.9
2018-Jan-02 19:00N 25°52' W 080°05'3 6.2
2018-Jan-02 18:30N 25°49' W 080°05'4 8.0
2018-Jan-02 18:00N 25°45' W 080°07'2 3.5
2018-Jan-02 17:30N 25°46' W 080°09'0 0.0
2018-Jan-02 17:00N 25°46' W 080°09'0 0.0
2018-Jan-02 16:30N 25°46' W 080°09'0 0.0
2018-Jan-02 16:00N 25°46' W 080°09'0 0.0
2018-Jan-02 15:31N 25°46' W 080°09'0 0.0
2018-Jan-02 15:00N 25°46' W 080°09'0 0.0
2018-Jan-02 14:30N 25°46' W 080°09'0 0.0
2018-Jan-02 14:00N 25°46' W 080°09'0 0.0
2018-Jan-02 13:30N 25°46' W 080°09'0 0.0
2018-Jan-02 13:00N 25°46' W 080°09'0 0.0
2018-Jan-02 12:30N 25°46' W 080°09'0 0.0
2018-Jan-02 12:00N 25°46' W 080°09'0 0.0
2018-Jan-02 11:30N 25°46' W 080°09'0 0.0
2018-Jan-02 11:00N 25°46' W 080°09'0 0.0
2018-Jan-02 10:30N 25°46' W 080°09'0 0.0
2018-Jan-02 10:00N 25°46' W 080°09'0 0.0
2018-Jan-02 09:31N 25°46' W 080°09'0 0.0
2018-Jan-02 08:30N 25°46' W 080°09'0 0.0
2018-Jan-02 08:00N 25°46' W 080°09'0 0.0
2018-Jan-02 07:30N 25°46' W 080°09'0 0.0
2018-Jan-02 07:00N 25°46' W 080°09'0 0.0
2018-Jan-02 06:30N 25°46' W 080°09'0 0.0
2018-Jan-02 06:00N 25°46' W 080°09'0 0.0
2018-Jan-02 05:30N 25°46' W 080°09'0 0.0
2018-Jan-02 04:30N 25°46' W 080°09'0 0.0
2018-Jan-02 04:00N 25°46' W 080°09'0 0.0
2018-Jan-02 03:30N 25°46' W 080°09'0 0.0
2018-Jan-02 03:00N 25°46' W 080°09'0 0.0
2018-Jan-02 02:30N 25°46' W 080°09'0 0.0
2018-Jan-02 02:00N 25°46' W 080°09'0 0.0
2018-Jan-02 01:30N 25°46' W 080°09'0 0.0
2018-Jan-02 01:00N 25°46' W 080°09'0 0.0
2018-Jan-02 00:30N 25°46' W 080°09'0 0.0
2018-Jan-02 00:00N 25°46' W 080°09'0 0.0
2018-Jan-01 23:30N 25°46' W 080°09'0 0.1
2018-Jan-01 23:00N 25°46' W 080°09'0 0.4
2018-Jan-01 22:30N 25°46' W 080°09'3 6.2
2018-Jan-01 22:00N 25°47' W 080°05'4 8.1
2018-Jan-01 21:30N 25°51' W 080°04'4 8.9
2018-Jan-01 21:00N 25°55' W 080°04'4 8.7
2018-Jan-01 20:30N 25°60' W 080°04'4 9.0
2018-Jan-01 20:01N 26°04' W 080°04'3 6.8
2018-Jan-01 19:30N 26°06' W 080°07'2 4.6
2018-Jan-01 19:00N 26°09' W 080°06'3 6.1
2018-Jan-01 18:30N 26°12' W 080°06'2 5.0
2018-Jan-01 18:00N 26°14' W 080°06'2 3.3
2018-Jan-01 17:30N 26°16' W 080°05'  
Track history (hours):
 
Tides and Currents Weather Stations Pressure Air Temp Water Temp Dewpoint Dewpoint Depression Visibility Wind Speed Wind Dir Waves Ship Positions

Claire

Last reported at 2018-Jan-03 15:01 UTC. Time now 2018-Jan-21 03:06 UTC.
Position N 26°21' W 080°05'.
Warning: this ship's position is 17 days out of date.

Length 45 m; draft 2 m.

Type: Pleasure craft. MMSI: 339371000.

Date/timePositionNaut miles runAvg speedWind from/ knotsBaromVisibWave heightAir tempDewpointWater temp
2018-Jan-03 15:01N 26°21' W 080°05'0 0.0
2018-Jan-03 15:00N 26°21' W 080°05'2 4.0
2018-Jan-03 14:30N 26°19' W 080°05'3 5.8
2018-Jan-03 13:59N 26°16' W 080°05'2 4.2
2018-Jan-03 13:29N 26°14' W 080°06'3 5.4
2018-Jan-03 13:00N 26°11' W 080°06'3 6.1
2018-Jan-03 12:30N 26°08' W 080°07'1 2.5
2018-Jan-03 12:01N 26°07' W 080°07'0 0.0
2018-Jan-03 02:13N 26°07' W 080°07'0 0.0
2018-Jan-03 01:58N 26°07' W 080°07'0 0.0
2018-Jan-03 01:28N 26°07' W 080°07'0 0.0
2018-Jan-03 00:58N 26°07' W 080°07'0 0.0
2018-Jan-03 00:28N 26°07' W 080°07'0 0.0
2018-Jan-02 23:58N 26°07' W 080°07'0 0.0
2018-Jan-02 23:28N 26°07' W 080°07'0 0.0
2018-Jan-02 22:58N 26°07' W 080°07'0 0.0
2018-Jan-02 22:30N 26°07' W 080°07'0 0.0
2018-Jan-02 22:00N 26°07' W 080°07'1 1.4
2018-Jan-02 21:30N 26°06' W 080°07'1 1.9
2018-Jan-02 21:00N 26°06' W 080°07'3 5.4
2018-Jan-02 20:30N 26°03' W 080°05'4 7.8
2018-Jan-02 20:00N 25°59' W 080°05'4 7.9
2018-Jan-02 19:30N 25°56' W 080°05'3 6.9
2018-Jan-02 19:00N 25°52' W 080°05'3 6.2
2018-Jan-02 18:30N 25°49' W 080°05'4 8.0
2018-Jan-02 18:00N 25°45' W 080°07'2 3.5
2018-Jan-02 17:30N 25°46' W 080°09'0 0.0
2018-Jan-02 17:00N 25°46' W 080°09'0 0.0
2018-Jan-02 16:30N 25°46' W 080°09'0 0.0
2018-Jan-02 16:00N 25°46' W 080°09'0 0.0
2018-Jan-02 15:31N 25°46' W 080°09'0 0.0
2018-Jan-02 15:00N 25°46' W 080°09'0 0.0
2018-Jan-02 14:30N 25°46' W 080°09'0 0.0
2018-Jan-02 14:00N 25°46' W 080°09'0 0.0
2018-Jan-02 13:30N 25°46' W 080°09'0 0.0
2018-Jan-02 13:00N 25°46' W 080°09'0 0.0
2018-Jan-02 12:30N 25°46' W 080°09'0 0.0
2018-Jan-02 12:00N 25°46' W 080°09'0 0.0
2018-Jan-02 11:30N 25°46' W 080°09'0 0.0
2018-Jan-02 11:00N 25°46' W 080°09'0 0.0
2018-Jan-02 10:30N 25°46' W 080°09'0 0.0
2018-Jan-02 10:00N 25°46' W 080°09'0 0.0
2018-Jan-02 09:31N 25°46' W 080°09'0 0.0
2018-Jan-02 08:30N 25°46' W 080°09'0 0.0
2018-Jan-02 08:00N 25°46' W 080°09'0 0.0
2018-Jan-02 07:30N 25°46' W 080°09'0 0.0
2018-Jan-02 07:00N 25°46' W 080°09'0 0.0
2018-Jan-02 06:30N 25°46' W 080°09'0 0.0
2018-Jan-02 06:00N 25°46' W 080°09'0 0.0
2018-Jan-02 05:30N 25°46' W 080°09'0 0.0
2018-Jan-02 04:30N 25°46' W 080°09'0 0.0
2018-Jan-02 04:00N 25°46' W 080°09'0 0.0
2018-Jan-02 03:30N 25°46' W 080°09'0 0.0
2018-Jan-02 03:00N 25°46' W 080°09'0 0.0
2018-Jan-02 02:30N 25°46' W 080°09'0 0.0
2018-Jan-02 02:00N 25°46' W 080°09'0 0.0
2018-Jan-02 01:30N 25°46' W 080°09'0 0.0
2018-Jan-02 01:00N 25°46' W 080°09'0 0.0
2018-Jan-02 00:30N 25°46' W 080°09'0 0.0
2018-Jan-02 00:00N 25°46' W 080°09'0 0.0
2018-Jan-01 23:30N 25°46' W 080°09'0 0.1
2018-Jan-01 23:00N 25°46' W 080°09'0 0.4
2018-Jan-01 22:30N 25°46' W 080°09'3 6.2
2018-Jan-01 22:00N 25°47' W 080°05'4 8.1
2018-Jan-01 21:30N 25°51' W 080°04'4 8.9
2018-Jan-01 21:00N 25°55' W 080°04'4 8.7
2018-Jan-01 20:30N 25°60' W 080°04'4 9.0
2018-Jan-01 20:01N 26°04' W 080°04'3 6.8
2018-Jan-01 19:30N 26°06' W 080°07'2 4.6
2018-Jan-01 19:00N 26°09' W 080°06'3 6.1
2018-Jan-01 18:30N 26°12' W 080°06'2 5.0
2018-Jan-01 18:00N 26°14' W 080°06'2 3.3
2018-Jan-01 17:30N 26°16' W 080°05'  

Dump ship's entire track history